createdAt,value
2017-10-14T00:00:33.866Z,13.57
2017-10-14T00:03:03.947Z,9.83
2017-10-14T00:05:34.025Z,10.40
2017-10-14T00:08:04.164Z,12.37
2017-10-14T00:10:34.114Z,10.53
2017-10-14T00:13:04.190Z,12.57
2017-10-14T00:15:34.314Z,12.47
2017-10-14T00:18:04.321Z,9.60
2017-10-14T00:20:34.313Z,13.40
2017-10-14T00:23:04.631Z,8.83
2017-10-14T00:25:34.459Z,11.87
2017-10-14T00:28:04.504Z,10.30
2017-10-14T00:30:34.672Z,12.93
2017-10-14T00:33:04.705Z,9.40
2017-10-14T00:35:34.652Z,11.37
2017-10-14T00:38:04.708Z,14.93
2017-10-14T00:40:34.757Z,11.87
2017-10-14T00:43:04.709Z,13.97
2017-10-14T00:45:34.926Z,11.97
2017-10-14T00:48:04.828Z,12.40
2017-10-14T00:50:34.862Z,15.37
2017-10-14T00:53:04.863Z,14.90
2017-10-14T00:55:34.989Z,14.20
2017-10-14T00:58:05.031Z,13.73
2017-10-14T01:00:35.093Z,12.73
2017-10-14T01:03:05.403Z,13.57
2017-10-14T01:05:35.160Z,15.93
2017-10-14T01:11:05.471Z,10.20
2017-10-14T01:13:35.345Z,11.10
2017-10-14T01:16:05.343Z,10.77
2017-10-14T01:18:35.486Z,12.17
2017-10-14T01:21:05.581Z,11.53
2017-10-14T01:23:35.517Z,12.87
2017-10-14T01:26:05.595Z,10.27
2017-10-14T01:28:35.683Z,11.40
2017-10-14T01:31:05.644Z,9.10
2017-10-14T01:33:35.809Z,12.10
2017-10-14T01:36:05.794Z,12.33
2017-10-14T01:38:35.829Z,13.33
2017-10-14T01:41:05.882Z,13.37
2017-10-14T01:43:36.832Z,9.47
2017-10-14T01:46:06.387Z,12.17
2017-10-14T01:48:36.248Z,11.47
2017-10-14T01:51:06.038Z,9.13
2017-10-14T01:53:36.011Z,11.73
2017-10-14T01:56:06.061Z,9.37
2017-10-14T01:58:36.086Z,11.43
2017-10-14T02:01:06.181Z,9.60
2017-10-14T02:03:36.055Z,11.20
2017-10-14T02:06:06.083Z,12.77
2017-10-14T02:08:36.172Z,9.30
2017-10-14T02:11:06.063Z,12.17
2017-10-14T02:13:36.194Z,16.63
2017-10-14T02:16:06.191Z,13.23
2017-10-14T02:18:36.210Z,10.23
2017-10-14T02:21:06.433Z,13.20
2017-10-14T02:23:36.204Z,14.50
2017-10-14T02:26:06.373Z,11.87
2017-10-14T02:28:36.253Z,11.07
2017-10-14T02:31:06.325Z,10.50
2017-10-14T02:33:36.280Z,13.07
2017-10-14T02:36:06.321Z,13.80
2017-10-14T02:38:36.326Z,9.23
2017-10-14T02:41:06.359Z,10.17
2017-10-14T02:43:36.453Z,10.63
2017-10-14T02:46:06.485Z,10.57
2017-10-14T02:48:36.511Z,12.13
2017-10-14T02:51:06.533Z,10.97
2017-10-14T02:53:36.558Z,10.10
2017-10-14T02:56:06.687Z,11.47
2017-10-14T02:58:36.665Z,13.20
2017-10-14T03:01:06.506Z,15.97
2017-10-14T03:03:36.638Z,18.30
2017-10-14T03:06:06.671Z,11.40
2017-10-14T03:08:36.658Z,11.80
2017-10-14T03:11:06.684Z,12.60
2017-10-14T03:13:36.802Z,10.50
2017-10-14T03:16:06.702Z,9.23
2017-10-14T03:18:36.762Z,11.70
2017-10-14T03:21:06.752Z,11.47
2017-10-14T03:23:36.873Z,12.07
2017-10-14T03:26:06.897Z,14.37
2017-10-14T03:28:36.910Z,12.43
2017-10-14T03:31:06.942Z,11.53
2017-10-14T03:33:37.039Z,12.93
2017-10-14T03:36:06.959Z,10.40
2017-10-14T03:38:36.968Z,11.53
2017-10-14T03:41:06.969Z,11.93
2017-10-14T03:43:36.980Z,13.77
2017-10-14T03:46:07.137Z,15.33
2017-10-14T03:48:37.251Z,13.50
2017-10-14T03:51:07.073Z,13.97
2017-10-14T03:53:37.105Z,13.63
2017-10-14T03:56:07.121Z,9.93
2017-10-14T03:58:37.135Z,11.73
2017-10-14T04:01:07.137Z,14.63
2017-10-14T04:03:37.239Z,13.00
2017-10-14T04:06:07.281Z,16.47
2017-10-14T04:08:37.171Z,11.87
2017-10-14T04:11:07.198Z,13.73
2017-10-14T04:13:37.262Z,13.17
2017-10-14T04:16:07.249Z,14.17
2017-10-14T04:18:37.255Z,13.83
2017-10-14T04:21:07.253Z,11.13
2017-10-14T04:23:37.276Z,15.13
2017-10-14T04:26:07.289Z,18.37
2017-10-14T04:28:37.379Z,20.73
2017-10-14T04:31:07.370Z,13.83
2017-10-14T04:33:37.364Z,13.40
2017-10-14T04:36:07.382Z,16.03
2017-10-14T04:38:37.431Z,11.83
2017-10-14T04:41:07.447Z,12.87
2017-10-14T04:43:37.525Z,14.93
2017-10-14T04:46:07.440Z,16.87
2017-10-14T04:48:37.432Z,19.47
2017-10-14T04:51:07.603Z,21.13
2017-10-14T04:53:37.608Z,23.50
2017-10-14T04:56:07.607Z,22.03
2017-10-14T04:58:37.703Z,24.97
2017-10-14T05:01:07.678Z,18.13
2017-10-14T05:03:37.697Z,23.80
2017-10-14T05:06:07.675Z,20.77
2017-10-14T05:08:37.718Z,20.00
2017-10-14T05:11:07.751Z,19.00
2017-10-14T05:13:37.873Z,20.23
2017-10-14T05:16:07.852Z,21.43
2017-10-14T05:18:37.770Z,15.70
2017-10-14T05:21:07.952Z,17.70
2017-10-14T05:23:37.834Z,16.17
2017-10-14T05:26:07.950Z,17.10
2017-10-14T05:28:37.990Z,19.37
2017-10-14T05:31:07.991Z,22.57
2017-10-14T05:33:38.119Z,21.07
2017-10-14T05:36:08.165Z,20.13
2017-10-14T05:38:38.182Z,16.53
2017-10-14T05:41:08.273Z,16.13
2017-10-14T05:43:38.289Z,15.17
2017-10-14T05:46:08.322Z,22.70
2017-10-14T05:48:38.503Z,24.53
2017-10-14T05:51:08.455Z,14.90
2017-10-14T05:53:38.370Z,10.63
2017-10-14T05:56:08.423Z,11.90
2017-10-14T05:58:38.411Z,9.50
2017-10-14T06:01:08.562Z,14.83
2017-10-14T06:03:38.545Z,13.73
2017-10-14T06:06:08.438Z,9.77
2017-10-14T06:08:38.627Z,12.00
2017-10-14T06:11:08.982Z,15.97
2017-10-14T06:13:38.965Z,14.53
2017-10-14T06:16:08.907Z,12.93
2017-10-14T06:18:38.890Z,13.77
2017-10-14T06:21:09.046Z,12.90
2017-10-14T06:23:39.003Z,12.33
2017-10-14T06:26:09.111Z,12.83
2017-10-14T06:28:39.070Z,11.17
2017-10-14T06:31:09.161Z,11.27
2017-10-14T06:33:39.134Z,13.27
2017-10-14T06:36:09.178Z,16.70
2017-10-14T06:38:39.164Z,23.57
2017-10-14T06:41:09.289Z,19.33
2017-10-14T06:43:39.230Z,12.77
2017-10-14T06:46:09.229Z,12.53
2017-10-14T06:48:39.315Z,15.87
2017-10-14T06:51:09.305Z,17.93
2017-10-14T06:53:39.241Z,13.53
2017-10-14T06:56:09.401Z,14.17
2017-10-14T06:58:39.252Z,14.00
2017-10-14T07:01:10.196Z,13.40
2017-10-14T07:03:39.722Z,13.60
2017-10-14T07:06:09.426Z,16.67
2017-10-14T07:08:39.545Z,18.83
2017-10-14T07:11:09.571Z,15.17
2017-10-14T07:13:39.593Z,16.80
2017-10-14T07:16:09.683Z,13.27
2017-10-14T07:18:39.588Z,18.13
2017-10-14T07:21:09.637Z,9.10
2017-10-14T07:23:39.721Z,10.33
2017-10-14T07:26:09.706Z,13.93
2017-10-14T07:28:39.754Z,9.70
2017-10-14T07:31:09.723Z,12.90
2017-10-14T07:33:39.733Z,12.40
2017-10-14T07:36:09.866Z,11.77
2017-10-14T07:38:39.865Z,9.17
2017-10-14T07:41:09.937Z,9.40
2017-10-14T07:43:39.855Z,11.33
2017-10-14T07:46:10.020Z,12.77
2017-10-14T07:48:40.153Z,12.97
2017-10-14T07:51:10.001Z,12.27
2017-10-14T07:53:39.995Z,11.03
2017-10-14T07:56:10.050Z,12.50
2017-10-14T07:58:40.088Z,11.10
2017-10-14T08:01:10.050Z,11.47
2017-10-14T08:03:40.336Z,12.17
2017-10-14T08:06:10.461Z,26.07
2017-10-14T08:08:40.427Z,19.77
2017-10-14T08:11:10.612Z,24.10
2017-10-14T08:13:40.329Z,15.33
2017-10-14T08:16:10.160Z,9.57
2017-10-14T08:18:40.321Z,15.00
2017-10-14T08:21:10.164Z,15.00
2017-10-14T08:23:40.423Z,13.30
2017-10-14T08:26:10.341Z,10.83
2017-10-14T08:28:40.385Z,54.27
2017-10-14T08:31:10.498Z,19.57
2017-10-14T08:33:40.496Z,17.73
2017-10-14T08:36:11.224Z,18.83
2017-10-14T08:38:40.765Z,12.13
2017-10-14T08:41:10.532Z,11.47
2017-10-14T08:43:40.687Z,18.97
2017-10-14T08:46:10.601Z,11.87
2017-10-14T08:48:40.612Z,29.73
2017-10-14T08:51:10.745Z,24.67
2017-10-14T08:53:40.619Z,23.33
2017-10-14T08:56:10.781Z,25.60
2017-10-14T08:58:40.654Z,18.00
2017-10-14T09:01:10.827Z,21.53
2017-10-14T09:03:40.907Z,17.40
2017-10-14T09:06:10.745Z,15.30
2017-10-14T09:08:40.844Z,14.23
2017-10-14T09:11:10.826Z,12.03
2017-10-14T09:13:40.905Z,14.60
2017-10-14T09:16:10.901Z,11.53
2017-10-14T09:18:40.882Z,16.50
2017-10-14T09:21:10.953Z,13.07
2017-10-14T09:23:41.046Z,16.73
2017-10-14T09:26:11.075Z,14.40
2017-10-14T09:28:41.114Z,14.63
2017-10-14T09:31:11.141Z,10.47
2017-10-14T09:33:41.121Z,15.10
2017-10-14T09:36:11.130Z,20.50
2017-10-14T09:38:41.135Z,10.50
2017-10-14T09:41:11.148Z,14.07
2017-10-14T09:43:41.181Z,14.30
2017-10-14T09:46:11.345Z,14.53
2017-10-14T09:48:41.161Z,15.33
2017-10-14T09:51:11.243Z,13.30
2017-10-14T09:53:41.351Z,14.40
2017-10-14T09:56:11.194Z,9.87
2017-10-14T09:58:41.269Z,10.20
2017-10-14T10:01:11.288Z,11.97
2017-10-14T10:03:41.263Z,12.13
2017-10-14T10:06:11.344Z,11.00
2017-10-14T10:08:41.366Z,15.00
2017-10-14T10:11:11.356Z,17.03
2017-10-14T10:13:41.378Z,14.70
2017-10-14T10:16:11.380Z,14.50
2017-10-14T10:18:41.426Z,25.57
2017-10-14T10:21:11.560Z,33.23
2017-10-14T10:23:41.506Z,16.20
2017-10-14T10:26:11.638Z,30.47
2017-10-14T10:28:41.661Z,24.60
2017-10-14T10:31:11.522Z,29.33
2017-10-14T10:33:41.514Z,17.57
2017-10-14T10:36:11.700Z,20.17
2017-10-14T10:38:43.059Z,16.63
2017-10-14T10:41:13.533Z,17.70
2017-10-14T10:43:44.024Z,18.17
2017-10-14T10:46:14.091Z,13.50
2017-10-14T10:48:44.252Z,12.83
2017-10-14T10:51:14.125Z,13.97
2017-10-14T10:53:44.258Z,12.57
2017-10-14T10:56:14.399Z,14.40
2017-10-14T10:58:44.378Z,14.17
2017-10-14T11:01:14.309Z,9.50
2017-10-14T11:03:44.425Z,10.00
2017-10-14T11:06:14.344Z,13.47
2017-10-14T11:08:44.359Z,17.20
2017-10-14T11:11:14.367Z,15.40
2017-10-14T11:13:44.369Z,10.70
2017-10-14T11:16:14.723Z,12.63
2017-10-14T11:18:44.466Z,13.33
2017-10-14T11:21:15.319Z,10.00
2017-10-14T11:23:44.868Z,11.03
2017-10-14T11:26:14.488Z,12.00
2017-10-14T11:28:44.611Z,6.73
2017-10-14T11:31:14.813Z,10.43
2017-10-14T11:33:46.817Z,7.50
2017-10-14T11:36:17.087Z,10.63
2017-10-14T11:38:47.081Z,18.80
2017-10-14T11:41:17.022Z,9.53
2017-10-14T11:43:47.455Z,11.40
2017-10-14T11:46:18.177Z,13.83
2017-10-14T11:48:47.788Z,8.27
2017-10-14T11:51:17.902Z,11.50
2017-10-14T11:53:47.666Z,8.57
2017-10-14T11:56:17.517Z,8.50
2017-10-14T11:58:47.670Z,10.07
2017-10-14T12:01:17.788Z,8.47
2017-10-14T12:03:47.625Z,5.77
2017-10-14T12:06:17.906Z,7.20
2017-10-14T12:08:47.737Z,6.30
2017-10-14T12:11:17.765Z,8.10
2017-10-14T12:13:47.988Z,10.77
2017-10-14T12:16:18.388Z,5.70
2017-10-14T12:18:48.745Z,5.63
2017-10-14T12:21:18.423Z,7.50
2017-10-14T12:23:48.519Z,4.77
2017-10-14T12:26:18.110Z,4.10
2017-10-14T12:28:48.205Z,7.10
2017-10-14T12:31:18.260Z,4.30
2017-10-14T12:33:48.358Z,4.83
2017-10-14T12:36:18.301Z,6.43
2017-10-14T12:38:48.162Z,6.43
2017-10-14T12:41:18.210Z,8.23
2017-10-14T12:43:48.265Z,3.93
2017-10-14T12:46:18.272Z,4.83
2017-10-14T12:48:48.307Z,4.27
2017-10-14T12:51:18.538Z,3.27
2017-10-14T12:53:48.582Z,5.20
2017-10-14T12:56:18.573Z,4.13
2017-10-14T12:58:48.685Z,2.77
2017-10-14T13:01:18.677Z,14.73
2017-10-14T13:03:49.023Z,25.50
2017-10-14T13:06:19.479Z,6.00
2017-10-14T13:08:48.994Z,4.10
2017-10-14T13:11:18.566Z,3.37
2017-10-14T13:13:48.651Z,4.93
2017-10-14T13:16:18.676Z,3.83
2017-10-14T13:18:48.721Z,3.80
2017-10-14T13:21:18.632Z,5.33
2017-10-14T13:23:48.620Z,3.40
2017-10-14T13:26:18.734Z,4.20
2017-10-14T13:28:48.769Z,4.53
2017-10-14T13:31:18.825Z,5.03
2017-10-14T13:33:48.887Z,3.80
2017-10-14T13:36:18.907Z,3.30
2017-10-14T13:38:48.747Z,4.60
2017-10-14T13:41:18.822Z,3.80
2017-10-14T13:43:48.850Z,4.43
2017-10-14T13:46:18.974Z,4.67
2017-10-14T13:48:49.034Z,5.43
2017-10-14T13:51:19.066Z,10.47
2017-10-14T13:53:49.093Z,9.40
2017-10-14T13:56:19.195Z,12.73
2017-10-14T13:58:49.872Z,8.17
2017-10-14T14:01:19.950Z,4.40
2017-10-14T14:03:50.137Z,3.63
2017-10-14T14:06:20.153Z,3.93
2017-10-14T14:08:49.961Z,3.43
2017-10-14T14:11:20.265Z,5.07
2017-10-14T14:13:50.431Z,4.17
2017-10-14T14:16:20.461Z,4.73
2017-10-14T14:18:50.235Z,4.23
2017-10-14T14:21:20.270Z,5.67
2017-10-14T14:23:50.379Z,4.33
2017-10-14T14:26:20.864Z,7.37
2017-10-14T14:28:50.457Z,7.00
2017-10-14T14:31:20.623Z,5.67
2017-10-14T14:33:50.609Z,4.60
2017-10-14T14:36:20.564Z,5.93
2017-10-14T14:38:51.101Z,6.60
2017-10-14T14:41:20.918Z,21.00
2017-10-14T14:43:50.841Z,33.60
2017-10-14T14:46:21.162Z,64.07
2017-10-14T14:48:51.189Z,110.90
2017-10-14T14:51:21.338Z,30.43
2017-10-14T14:53:51.319Z,42.50
2017-10-14T14:56:21.675Z,34.67
2017-10-14T14:58:51.664Z,53.40
2017-10-14T15:01:21.555Z,133.23
2017-10-14T15:03:51.722Z,61.53
2017-10-14T15:06:22.203Z,122.67
2017-10-14T15:08:52.503Z,72.90
2017-10-14T15:11:22.141Z,66.20
2017-10-14T15:13:51.768Z,42.57
2017-10-14T15:16:22.787Z,18.23
2017-10-14T15:18:52.419Z,15.87
2017-10-14T15:21:22.569Z,20.07
2017-10-14T15:23:52.917Z,6.87
2017-10-14T15:26:22.455Z,8.73
2017-10-14T15:28:52.185Z,4.57
2017-10-14T15:31:22.265Z,6.00
2017-10-14T15:33:52.298Z,6.53
2017-10-14T15:36:22.321Z,4.80
2017-10-14T15:38:52.480Z,7.47
2017-10-14T15:41:23.232Z,30.80
2017-10-14T15:43:52.814Z,78.47
2017-10-14T15:46:23.044Z,163.80
2017-10-14T15:48:52.859Z,63.87
2017-10-14T15:51:22.773Z,74.97
2017-10-14T15:53:52.755Z,38.17
2017-10-14T15:56:22.849Z,26.33
2017-10-14T15:58:53.460Z,48.70
2017-10-14T16:01:23.292Z,76.40
2017-10-14T16:03:53.121Z,76.70
2017-10-14T16:06:23.102Z,75.83
2017-10-14T16:08:53.145Z,61.07
2017-10-14T16:11:23.223Z,23.83
2017-10-14T16:13:53.273Z,11.40
2017-10-14T16:16:23.314Z,12.77
2017-10-14T16:18:53.303Z,6.77
2017-10-14T16:21:23.389Z,11.77
2017-10-14T16:23:53.544Z,7.40
2017-10-14T16:26:23.622Z,6.77
2017-10-14T16:28:53.635Z,7.03
2017-10-14T16:31:23.616Z,8.10
2017-10-14T16:33:53.751Z,14.40
2017-10-14T16:36:23.730Z,14.63
2017-10-14T16:38:54.031Z,15.73
2017-10-14T16:41:24.004Z,17.70
2017-10-14T16:43:53.937Z,21.77
2017-10-14T16:46:23.938Z,20.73
2017-10-14T16:48:54.077Z,21.10
2017-10-14T16:51:24.146Z,21.67
2017-10-14T16:53:54.267Z,19.17
2017-10-14T16:56:24.338Z,21.30
2017-10-14T16:58:54.240Z,19.87
2017-10-14T17:01:24.285Z,28.67
2017-10-14T17:03:54.484Z,17.17
2017-10-14T17:06:24.851Z,14.23
2017-10-14T17:08:54.460Z,18.40
2017-10-14T17:11:24.893Z,15.40
2017-10-14T17:13:54.890Z,13.87
2017-10-14T17:16:24.870Z,15.00
2017-10-14T17:18:54.877Z,14.43
2017-10-14T17:21:24.867Z,13.63
2017-10-14T17:23:54.989Z,17.73
2017-10-14T17:26:25.107Z,16.97
2017-10-14T17:28:56.061Z,17.00
2017-10-14T17:31:25.790Z,16.57
2017-10-14T17:33:55.363Z,17.60
2017-10-14T17:36:25.370Z,17.83
2017-10-14T17:38:55.285Z,21.33
2017-10-14T17:41:25.381Z,17.13
2017-10-14T17:43:55.763Z,16.90
2017-10-14T17:46:25.440Z,14.47
2017-10-14T17:48:55.573Z,14.10
2017-10-14T17:51:25.633Z,20.47
2017-10-14T17:53:55.904Z,12.83
2017-10-14T17:56:25.775Z,12.77
2017-10-14T17:58:55.833Z,12.57
2017-10-14T18:01:25.959Z,14.77
2017-10-14T18:03:56.022Z,12.63
2017-10-14T18:06:26.040Z,15.27
2017-10-14T18:08:55.989Z,13.57
2017-10-14T18:11:26.082Z,11.87
2017-10-14T18:13:56.151Z,12.23
2017-10-14T18:16:26.266Z,15.77
2017-10-14T18:18:56.274Z,14.90
2017-10-14T18:21:26.240Z,9.60
2017-10-14T18:23:56.349Z,10.80
2017-10-14T18:26:26.402Z,13.30
2017-10-14T18:28:56.366Z,7.90
2017-10-14T18:31:26.524Z,13.73
2017-10-14T18:33:56.488Z,10.87
2017-10-14T18:36:26.638Z,12.13
2017-10-14T18:38:56.691Z,14.27
2017-10-14T18:41:26.735Z,16.13
2017-10-14T18:43:56.721Z,10.10
2017-10-14T18:46:26.817Z,14.23
2017-10-14T18:48:56.847Z,9.97
2017-10-14T18:51:27.191Z,11.63
2017-10-14T18:53:56.915Z,14.60
2017-10-14T18:56:27.331Z,13.43
2017-10-14T18:58:57.356Z,12.43
2017-10-14T19:01:27.808Z,18.90
2017-10-14T19:03:57.513Z,14.00
2017-10-14T19:06:27.282Z,11.73
2017-10-14T19:08:57.446Z,12.40
2017-10-14T19:11:27.931Z,13.03
2017-10-14T19:13:57.828Z,9.00
2017-10-14T19:16:27.863Z,13.00
2017-10-14T19:18:58.637Z,17.47
2017-10-14T19:21:28.501Z,12.70
2017-10-14T19:23:58.704Z,13.50
2017-10-14T19:26:28.752Z,13.00
2017-10-14T19:28:59.085Z,16.83
2017-10-14T19:31:28.949Z,15.60
2017-10-14T19:33:59.267Z,14.67
2017-10-14T19:36:29.624Z,12.77
2017-10-14T19:38:59.334Z,11.83
2017-10-14T19:41:29.558Z,10.70
2017-10-14T19:44:00.099Z,17.07
2017-10-14T19:46:30.543Z,11.33
2017-10-14T19:49:01.384Z,16.80
2017-10-14T19:51:31.639Z,12.03
2017-10-14T19:54:01.850Z,13.70
2017-10-14T19:56:32.060Z,14.30
2017-10-14T19:59:02.342Z,16.87
2017-10-14T20:01:33.025Z,19.50
2017-10-14T20:04:03.842Z,19.60
2017-10-14T20:06:34.370Z,22.80
2017-10-14T20:09:04.444Z,14.57
2017-10-14T20:11:34.717Z,20.10
2017-10-14T20:14:04.982Z,18.20
2017-10-14T20:16:35.607Z,19.57
2017-10-14T20:19:05.883Z,17.93
2017-10-14T20:21:36.303Z,16.23
2017-10-14T20:24:06.874Z,14.37
2017-10-14T20:26:37.538Z,15.67
2017-10-14T20:29:07.803Z,16.63
2017-10-14T20:31:37.843Z,15.43
2017-10-14T20:34:07.804Z,16.67
2017-10-14T20:36:37.887Z,14.63
2017-10-14T20:39:09.102Z,20.03
2017-10-14T20:41:39.448Z,19.33
2017-10-14T20:44:09.973Z,21.73
2017-10-14T20:46:41.478Z,19.30
2017-10-14T20:49:11.555Z,20.13
2017-10-14T20:51:41.185Z,18.93
2017-10-14T20:54:10.975Z,21.13
2017-10-14T20:56:40.826Z,20.70
2017-10-14T20:59:10.621Z,15.30
2017-10-14T21:01:40.796Z,26.47
2017-10-14T21:04:10.604Z,20.07
2017-10-14T21:06:40.695Z,22.73
2017-10-14T21:09:10.580Z,21.70
2017-10-14T21:11:40.665Z,23.10
2017-10-14T21:14:10.811Z,25.53
2017-10-14T21:16:40.974Z,25.57
2017-10-14T21:19:10.896Z,27.33
2017-10-14T21:21:41.445Z,25.07
2017-10-14T21:24:11.002Z,25.13
2017-10-14T21:26:40.954Z,26.30
2017-10-14T21:29:11.140Z,30.50
2017-10-14T21:31:41.247Z,26.20
2017-10-14T21:34:11.742Z,24.67
2017-10-14T21:36:41.283Z,25.53
2017-10-14T21:39:11.493Z,27.83
2017-10-14T21:41:41.828Z,21.80
2017-10-14T21:44:11.558Z,24.57
2017-10-14T21:46:41.513Z,25.97
2017-10-14T21:49:11.903Z,23.73
2017-10-14T21:51:41.744Z,22.33
2017-10-14T21:54:11.810Z,19.93
2017-10-14T21:56:41.769Z,20.87
2017-10-14T21:59:12.374Z,20.20
2017-10-14T22:01:41.909Z,14.27
2017-10-14T22:04:12.111Z,16.97
2017-10-14T22:06:43.598Z,15.10
2017-10-14T22:09:13.267Z,14.37
2017-10-14T22:11:42.841Z,14.07
2017-10-14T22:14:12.381Z,15.13
2017-10-14T22:16:42.425Z,11.83
2017-10-14T22:19:12.465Z,12.93
2017-10-14T22:21:42.474Z,12.27
2017-10-14T22:24:12.646Z,17.50
2017-10-14T22:26:42.794Z,17.53
2017-10-14T22:29:12.945Z,19.40
2017-10-14T22:31:42.863Z,17.87
2017-10-14T22:34:12.881Z,19.70
2017-10-14T22:36:43.288Z,17.10
2017-10-14T22:39:13.215Z,20.40
2017-10-14T22:41:43.162Z,20.60
2017-10-14T22:44:13.145Z,22.77
2017-10-14T22:46:43.465Z,19.67
2017-10-14T22:49:13.872Z,16.67
2017-10-14T22:51:43.505Z,22.90
2017-10-14T22:54:13.697Z,25.10
2017-10-14T22:56:43.581Z,18.30
2017-10-14T22:59:15.048Z,19.80
2017-10-14T23:01:44.613Z,18.73
2017-10-14T23:04:14.230Z,20.80
2017-10-14T23:06:43.885Z,19.20
2017-10-14T23:09:13.821Z,19.97
2017-10-14T23:11:44.113Z,18.13
2017-10-14T23:14:14.085Z,21.20
2017-10-14T23:16:44.123Z,20.87
2017-10-14T23:19:14.190Z,24.13
2017-10-14T23:21:44.139Z,23.00
2017-10-14T23:24:14.170Z,27.00
2017-10-14T23:26:44.285Z,26.63
2017-10-14T23:29:14.309Z,26.13
2017-10-14T23:31:44.677Z,29.10
2017-10-14T23:34:14.448Z,24.30
2017-10-14T23:36:44.441Z,29.40
2017-10-14T23:39:14.461Z,26.57
2017-10-14T23:41:44.528Z,26.73
2017-10-14T23:44:14.595Z,26.43
2017-10-14T23:46:44.721Z,23.17
2017-10-14T23:49:14.665Z,21.73
2017-10-14T23:51:44.721Z,18.57
2017-10-14T23:54:14.871Z,16.73
2017-10-14T23:56:44.879Z,17.77
2017-10-14T23:59:14.972Z,20.83
